createdAt,value
2018-04-23T00:00:34.769Z,17.30
2018-04-23T00:01:37.241Z,17.30
2018-04-23T00:02:39.755Z,17.30
2018-04-23T00:03:42.987Z,17.30
2018-04-23T00:04:46.220Z,17.30
2018-04-23T00:05:49.446Z,17.30
2018-04-23T00:06:52.709Z,17.30
2018-04-23T00:07:55.989Z,17.30
2018-04-23T00:08:58.504Z,17.30
2018-04-23T00:10:00.972Z,17.30
2018-04-23T00:11:03.463Z,17.30
2018-04-23T00:12:06.380Z,17.30
2018-04-23T00:13:08.864Z,17.30
2018-04-23T00:14:11.337Z,17.30
2018-04-23T00:15:13.800Z,17.30
2018-04-23T00:16:16.265Z,17.30
2018-04-23T00:17:19.515Z,17.30
2018-04-23T00:18:22.749Z,17.30
2018-04-23T00:19:25.978Z,17.30
2018-04-23T00:20:28.437Z,17.30
2018-04-23T00:21:30.916Z,17.30
2018-04-23T00:22:33.404Z,17.20
2018-04-23T00:23:35.874Z,17.30
2018-04-23T00:24:38.403Z,17.30
2018-04-23T00:25:40.871Z,17.30
2018-04-23T00:26:43.388Z,17.30
2018-04-23T00:27:45.906Z,17.30
2018-04-23T00:28:48.364Z,17.30
2018-04-23T00:29:50.853Z,17.20
2018-04-23T00:30:54.098Z,17.20
2018-04-23T00:31:56.632Z,17.20
2018-04-23T00:32:59.127Z,17.20
2018-04-23T00:34:02.361Z,17.20
2018-04-23T00:35:04.823Z,17.20
2018-04-23T00:36:07.291Z,17.20
2018-04-23T00:37:09.769Z,17.20
2018-04-23T00:38:12.256Z,17.20
2018-04-23T00:39:14.727Z,17.20
2018-04-23T00:40:17.202Z,17.20
2018-04-23T00:41:19.685Z,17.20
2018-04-23T00:42:22.175Z,17.20
2018-04-23T00:43:25.532Z,17.20
2018-04-23T00:44:28.764Z,17.20
2018-04-23T00:45:32.022Z,17.10
2018-04-23T00:46:34.495Z,17.10
2018-04-23T00:47:37.067Z,17.10
2018-04-23T00:48:39.566Z,17.10
2018-04-23T00:49:42.042Z,17.10
2018-04-23T00:50:44.523Z,17.10
2018-04-23T00:51:47.021Z,17.10
2018-04-23T00:53:01.495Z,17.10
2018-04-23T00:54:03.980Z,17.10
2018-04-23T00:55:07.215Z,17.10
2018-04-23T00:56:09.673Z,17.10
2018-04-23T00:57:12.195Z,17.10
2018-04-23T00:58:14.678Z,17.10
2018-04-23T00:59:17.170Z,17.10
2018-04-23T01:00:19.631Z,17.00
2018-04-23T01:01:22.120Z,17.00
2018-04-23T01:02:24.609Z,16.90
2018-04-23T01:03:27.124Z,16.90
2018-04-23T01:04:30.361Z,16.90
2018-04-23T01:05:33.600Z,16.90
2018-04-23T01:06:37.490Z,16.80
2018-04-23T01:07:40.017Z,16.80
2018-04-23T01:08:42.490Z,16.80
2018-04-23T01:09:45.064Z,16.80
2018-04-23T01:10:47.543Z,16.70
2018-04-23T01:11:50.007Z,16.70
2018-04-23T01:12:52.542Z,16.70
2018-04-23T01:13:55.015Z,16.70
2018-04-23T01:14:57.588Z,16.60
2018-04-23T01:16:00.722Z,16.60
2018-04-23T01:17:03.202Z,16.60
2018-04-23T01:18:05.799Z,16.60
2018-04-23T01:19:08.323Z,16.50
2018-04-23T01:20:10.787Z,16.50
2018-04-23T01:21:13.341Z,16.50
2018-04-23T01:22:16.581Z,16.50
2018-04-23T01:23:19.828Z,16.50
2018-04-23T01:24:23.065Z,16.40
2018-04-23T01:25:26.381Z,16.40
2018-04-23T01:26:28.851Z,16.50
2018-04-23T01:27:31.339Z,16.40
2018-04-23T01:28:33.819Z,16.40
2018-04-23T01:29:36.284Z,16.40
2018-04-23T01:30:38.771Z,16.40
2018-04-23T01:31:41.254Z,16.30
2018-04-23T01:32:44.493Z,16.30
2018-04-23T01:33:47.035Z,16.30
2018-04-23T01:34:50.674Z,16.30
2018-04-23T01:35:53.919Z,16.30
2018-04-23T01:36:57.146Z,16.30
2018-04-23T01:37:59.622Z,16.20
2018-04-23T01:39:02.130Z,16.20
2018-04-23T01:40:04.609Z,16.20
2018-04-23T01:41:07.073Z,16.20
2018-04-23T01:42:10.317Z,16.20
2018-04-23T01:43:13.659Z,16.20
2018-04-23T01:44:16.899Z,16.20
2018-04-23T01:45:20.165Z,16.20
2018-04-23T01:46:22.909Z,16.20
2018-04-23T01:47:25.398Z,16.20
2018-04-23T01:48:28.641Z,16.20
2018-04-23T01:49:31.882Z,16.20
2018-04-23T01:50:35.105Z,16.10
2018-04-23T01:51:38.362Z,16.10
2018-04-23T01:52:41.617Z,16.10
2018-04-23T01:53:44.148Z,16.10
2018-04-23T01:54:46.629Z,16.10
2018-04-23T01:55:50.615Z,16.10
2018-04-23T01:56:53.872Z,16.10
2018-04-23T01:57:56.351Z,16.10
2018-04-23T01:58:58.828Z,16.10
2018-04-23T02:00:01.309Z,16.00
2018-04-23T02:01:03.783Z,16.00
2018-04-23T02:02:06.271Z,16.00
2018-04-23T02:03:09.530Z,16.00
2018-04-23T02:04:12.777Z,16.00
2018-04-23T02:05:15.244Z,16.00
2018-04-23T02:06:17.709Z,16.00
2018-04-23T02:07:20.978Z,16.00
2018-04-23T02:08:23.470Z,16.00
2018-04-23T02:09:25.960Z,15.90
2018-04-23T02:10:28.428Z,15.90
2018-04-23T02:11:31.689Z,15.90
2018-04-23T02:12:34.174Z,15.90
2018-04-23T02:13:36.723Z,15.90
2018-04-23T02:14:39.989Z,15.80
2018-04-23T02:15:42.447Z,15.80
2018-04-23T02:16:45.324Z,15.80
2018-04-23T02:17:48.579Z,15.80
2018-04-23T02:18:51.950Z,15.80
2018-04-23T02:19:54.425Z,15.80
2018-04-23T02:20:56.887Z,15.80
2018-04-23T02:21:59.379Z,15.70
2018-04-23T02:23:02.629Z,15.70
2018-04-23T02:24:05.918Z,15.70
2018-04-23T02:25:08.433Z,15.70
2018-04-23T02:26:10.915Z,15.70
2018-04-23T02:27:14.144Z,15.70
2018-04-23T02:28:16.611Z,15.60
2018-04-23T02:29:19.094Z,15.60
2018-04-23T02:30:21.589Z,15.60
2018-04-23T02:31:24.067Z,15.60
2018-04-23T02:32:27.389Z,15.60
2018-04-23T02:33:29.864Z,15.60
2018-04-23T02:34:32.375Z,15.60
2018-04-23T02:35:34.902Z,15.60
2018-04-23T02:36:37.396Z,15.50
2018-04-23T02:37:39.936Z,15.60
2018-04-23T02:38:43.196Z,15.50
2018-04-23T02:39:45.674Z,15.50
2018-04-23T02:40:48.254Z,15.50
2018-04-23T02:41:50.819Z,15.50
2018-04-23T02:42:53.279Z,15.50
2018-04-23T02:43:55.776Z,15.50
2018-04-23T02:44:58.362Z,15.50
2018-04-23T02:46:00.933Z,15.50
2018-04-23T02:47:03.396Z,15.50
2018-04-23T02:48:05.887Z,15.50
2018-04-23T02:49:08.375Z,15.50
2018-04-23T02:50:10.888Z,15.50
2018-04-23T02:51:13.403Z,15.50
2018-04-23T02:52:15.868Z,15.40
2018-04-23T02:53:18.373Z,15.40
2018-04-23T02:54:20.976Z,15.40
2018-04-23T02:55:24.237Z,15.50
2018-04-23T02:56:26.729Z,15.50
2018-04-23T02:57:29.196Z,15.50
2018-04-23T02:58:31.685Z,15.50
2018-04-23T02:59:34.963Z,15.50
2018-04-23T03:00:37.485Z,15.40
2018-04-23T03:01:39.953Z,15.50
2018-04-23T03:02:42.454Z,15.50
2018-04-23T03:03:44.906Z,15.40
2018-04-23T03:04:47.394Z,15.40
2018-04-23T03:05:49.913Z,15.50
2018-04-23T03:06:52.391Z,15.40
2018-04-23T03:07:54.866Z,15.40
2018-04-23T03:08:57.489Z,15.40
2018-04-23T03:10:00.000Z,15.40
2018-04-23T03:11:02.472Z,15.50
2018-04-23T03:12:04.937Z,15.50
2018-04-23T03:13:08.179Z,15.40
2018-04-23T03:14:10.644Z,15.40
2018-04-23T03:15:13.127Z,15.40
2018-04-23T03:16:15.610Z,15.40
2018-04-23T03:17:18.084Z,15.40
2018-04-23T03:18:21.344Z,15.40
2018-04-23T03:19:23.830Z,15.40
2018-04-23T03:20:27.304Z,15.40
2018-04-23T03:21:29.773Z,15.40
2018-04-23T03:22:32.233Z,15.40
2018-04-23T03:23:35.480Z,15.30
2018-04-23T03:24:38.717Z,15.30
2018-04-23T03:25:41.982Z,15.30
2018-04-23T03:26:44.493Z,15.30
2018-04-23T03:27:47.732Z,15.20
2018-04-23T03:28:50.989Z,15.30
2018-04-23T03:29:53.539Z,15.20
2018-04-23T03:30:56.003Z,15.30
2018-04-23T03:31:58.542Z,15.30
2018-04-23T03:33:01.030Z,15.30
2018-04-23T03:34:03.524Z,15.30
2018-04-23T03:35:06.001Z,15.30
2018-04-23T03:36:08.569Z,15.30
2018-04-23T03:37:11.046Z,15.30
2018-04-23T03:38:13.634Z,15.30
2018-04-23T03:39:16.108Z,15.30
2018-04-23T03:40:18.596Z,15.30
2018-04-23T03:41:21.082Z,15.30
2018-04-23T03:42:24.331Z,15.30
2018-04-23T03:43:26.841Z,15.30
2018-04-23T03:44:30.098Z,15.30
2018-04-23T03:45:33.365Z,15.30
2018-04-23T03:46:35.842Z,15.20
2018-04-23T03:47:38.299Z,15.30
2018-04-23T03:48:40.790Z,15.20
2018-04-23T03:49:44.067Z,15.20
2018-04-23T03:50:46.550Z,15.20
2018-04-23T03:51:49.102Z,15.20
2018-04-23T03:52:52.369Z,15.20
2018-04-23T03:53:54.865Z,15.20
2018-04-23T03:54:58.111Z,15.20
2018-04-23T03:56:01.372Z,15.10
2018-04-23T03:57:03.852Z,15.10
2018-04-23T03:58:06.324Z,15.10
2018-04-23T03:59:08.813Z,15.10
2018-04-23T04:00:11.325Z,15.10
2018-04-23T04:01:13.815Z,15.10
2018-04-23T04:02:16.304Z,15.10
2018-04-23T04:03:19.900Z,15.00
2018-04-23T04:04:22.440Z,15.00
2018-04-23T04:05:24.924Z,15.00
2018-04-23T04:06:27.444Z,15.00
2018-04-23T04:07:29.938Z,15.00
2018-04-23T04:08:32.435Z,15.00
2018-04-23T04:09:34.909Z,15.00
2018-04-23T04:10:37.373Z,15.00
2018-04-23T04:11:39.868Z,15.00
2018-04-23T04:12:54.217Z,15.10
2018-04-23T04:14:08.576Z,15.10
2018-04-23T04:15:22.948Z,15.10
2018-04-23T04:16:37.590Z,15.10
2018-04-23T04:19:34.423Z,15.20
2018-04-23T04:20:36.901Z,15.20
2018-04-23T04:21:40.117Z,15.30
2018-04-23T04:22:42.635Z,15.20
2018-04-23T04:23:45.281Z,15.30
2018-04-23T04:24:47.800Z,15.30
2018-04-23T04:25:50.296Z,15.30
2018-04-23T04:26:52.909Z,15.40
2018-04-23T04:27:55.454Z,15.40
2018-04-23T04:28:57.948Z,15.40
2018-04-23T04:30:00.431Z,15.40
2018-04-23T04:31:02.899Z,15.40
2018-04-23T04:32:05.394Z,15.40
2018-04-23T04:33:07.876Z,15.40
2018-04-23T04:34:10.349Z,15.40
2018-04-23T04:35:13.713Z,15.40
2018-04-23T04:36:16.493Z,15.40
2018-04-23T04:37:19.961Z,15.40
2018-04-23T04:38:22.468Z,15.50
2018-04-23T04:39:24.950Z,15.50
2018-04-23T04:40:27.476Z,15.50
2018-04-23T04:41:29.972Z,15.50
2018-04-23T04:42:33.224Z,15.60
2018-04-23T04:43:36.487Z,15.60
2018-04-23T04:44:39.027Z,15.60
2018-04-23T04:45:41.644Z,15.60
2018-04-23T04:46:44.115Z,15.60
2018-04-23T04:47:46.589Z,15.70
2018-04-23T04:48:49.096Z,15.70
2018-04-23T04:49:52.328Z,15.70
2018-04-23T04:50:54.810Z,15.70
2018-04-23T04:51:57.288Z,15.70
2018-04-23T04:52:59.888Z,15.70
2018-04-23T04:54:02.358Z,15.80
2018-04-23T04:55:04.840Z,15.80
2018-04-23T04:56:07.341Z,15.80
2018-04-23T04:57:09.983Z,15.80
2018-04-23T04:58:13.498Z,15.80
2018-04-23T04:59:16.085Z,15.80
2018-04-23T05:00:19.348Z,15.90
2018-04-23T05:01:22.610Z,15.90
2018-04-23T05:02:25.119Z,15.90
2018-04-23T05:03:27.616Z,16.00
2018-04-23T05:04:30.089Z,16.00
2018-04-23T05:05:32.590Z,16.00
2018-04-23T05:06:35.104Z,16.10
2018-04-23T05:07:38.429Z,16.20
2018-04-23T05:08:40.924Z,16.20
2018-04-23T05:09:43.400Z,16.20
2018-04-23T05:10:46.648Z,16.30
2018-04-23T05:11:49.995Z,16.30
2018-04-23T05:12:52.532Z,16.30
2018-04-23T05:13:55.098Z,16.40
2018-04-23T05:14:57.613Z,16.40
2018-04-23T05:16:00.127Z,16.50
2018-04-23T05:17:02.683Z,16.50
2018-04-23T05:18:05.148Z,16.50
2018-04-23T05:19:08.407Z,16.60
2018-04-23T05:20:10.917Z,16.60
2018-04-23T05:21:14.316Z,16.60
2018-04-23T05:22:16.818Z,16.60
2018-04-23T05:23:19.373Z,16.70
2018-04-23T05:24:21.848Z,16.70
2018-04-23T05:25:24.377Z,16.80
2018-04-23T05:26:26.878Z,16.80
2018-04-23T05:27:30.120Z,16.80
2018-04-23T05:28:32.639Z,16.80
2018-04-23T05:29:35.908Z,16.80
2018-04-23T05:30:39.148Z,16.90
2018-04-23T05:31:42.405Z,16.90
2018-04-23T05:32:44.884Z,16.90
2018-04-23T05:33:47.378Z,16.90
2018-04-23T05:34:49.876Z,16.90
2018-04-23T05:35:52.348Z,16.90
2018-04-23T05:36:54.923Z,17.00
2018-04-23T05:37:57.389Z,17.00
2018-04-23T05:38:59.844Z,17.10
2018-04-23T05:40:02.325Z,17.10
2018-04-23T05:41:04.772Z,17.10
2018-04-23T05:42:07.288Z,17.20
2018-04-23T05:43:09.775Z,17.20
2018-04-23T05:44:12.343Z,17.20
2018-04-23T05:45:14.827Z,17.30
2018-04-23T05:46:17.400Z,17.30
2018-04-23T05:47:19.864Z,17.50
2018-04-23T05:48:22.321Z,17.50
2018-04-23T05:49:24.828Z,17.50
2018-04-23T05:50:28.097Z,17.60
2018-04-23T05:51:30.585Z,17.60
2018-04-23T05:52:33.822Z,17.60
2018-04-23T05:53:37.066Z,17.70
2018-04-23T05:54:40.309Z,17.70
2018-04-23T05:55:42.859Z,17.70
2018-04-23T05:56:45.424Z,17.70
2018-04-23T05:57:47.947Z,17.70
2018-04-23T05:58:50.525Z,17.80
2018-04-23T05:59:53.102Z,17.80
2018-04-23T06:00:55.658Z,17.80
2018-04-23T06:01:58.969Z,17.90
2018-04-23T06:03:01.481Z,17.90
2018-04-23T06:04:04.088Z,17.90
2018-04-23T06:05:06.572Z,18.00
2018-04-23T06:06:09.053Z,18.10
2018-04-23T06:07:11.561Z,18.10
2018-04-23T06:08:14.068Z,18.20
2018-04-23T06:09:17.367Z,18.50
2018-04-23T06:10:19.857Z,18.50
2018-04-23T06:11:22.360Z,18.60
2018-04-23T06:12:25.614Z,18.80
2018-04-23T06:13:28.111Z,18.80
2018-04-23T06:14:31.365Z,19.00
2018-04-23T06:15:34.755Z,19.20
2018-04-23T06:16:37.400Z,19.20
2018-04-23T06:17:39.898Z,19.20
2018-04-23T06:18:42.510Z,19.20
2018-04-23T06:19:44.992Z,19.30
2018-04-23T06:20:47.487Z,19.40
2018-04-23T06:21:50.004Z,19.60
2018-04-23T06:22:53.212Z,19.80
2018-04-23T06:23:56.439Z,20.10
2018-04-23T06:24:58.913Z,20.00
2018-04-23T06:26:01.391Z,20.10
2018-04-23T06:27:03.891Z,20.00
2018-04-23T06:28:06.407Z,19.90
2018-04-23T06:29:08.845Z,19.90
2018-04-23T06:30:11.427Z,19.70
2018-04-23T06:31:13.898Z,19.50
2018-04-23T06:32:16.407Z,19.40
2018-04-23T06:33:18.956Z,19.40
2018-04-23T06:34:21.671Z,19.30
2018-04-23T06:35:24.128Z,19.20
2018-04-23T06:36:27.441Z,19.20
2018-04-23T06:37:29.910Z,19.10
2018-04-23T06:38:33.471Z,19.00
2018-04-23T06:39:35.968Z,19.00
2018-04-23T06:40:39.260Z,18.90
2018-04-23T06:41:41.904Z,18.90
2018-04-23T06:42:45.207Z,18.80
2018-04-23T06:43:47.686Z,18.70
2018-04-23T06:44:50.257Z,18.70
2018-04-23T06:45:52.808Z,18.70
2018-04-23T06:46:55.316Z,18.70
2018-04-23T06:47:57.801Z,18.80
2018-04-23T06:49:01.092Z,18.80
2018-04-23T06:50:03.597Z,18.80
2018-04-23T06:51:06.858Z,18.80
2018-04-23T06:52:09.342Z,18.80
2018-04-23T06:53:11.909Z,18.80
2018-04-23T06:54:14.384Z,18.80
2018-04-23T06:55:16.852Z,18.80
2018-04-23T06:56:19.355Z,18.80
2018-04-23T06:57:22.644Z,18.80
2018-04-23T06:58:25.147Z,18.80
2018-04-23T06:59:27.615Z,18.90
2018-04-23T07:00:30.083Z,18.90
2018-04-23T07:01:33.359Z,19.10
2018-04-23T07:02:35.825Z,19.10
2018-04-23T07:03:38.291Z,19.40
2018-04-23T07:04:40.862Z,19.80
2018-04-23T07:05:43.370Z,20.10
2018-04-23T07:06:45.867Z,20.30
2018-04-23T07:07:48.340Z,20.40
2018-04-23T07:08:50.810Z,20.60
2018-04-23T07:09:53.267Z,20.70
2018-04-23T07:10:55.739Z,20.80
2018-04-23T07:11:58.214Z,21.00
2018-04-23T07:13:00.719Z,21.10
2018-04-23T07:14:03.195Z,21.20
2018-04-23T07:15:05.774Z,21.30
2018-04-23T07:16:08.256Z,21.40
2018-04-23T07:17:10.730Z,21.40
2018-04-23T07:18:13.203Z,21.50
2018-04-23T07:19:15.674Z,21.50
2018-04-23T07:20:18.164Z,21.40
2018-04-23T07:21:21.397Z,21.10
2018-04-23T07:22:23.899Z,21.10
2018-04-23T07:23:26.395Z,21.00
2018-04-23T07:24:28.874Z,20.90
2018-04-23T07:25:31.432Z,20.70
2018-04-23T07:26:33.914Z,20.60
2018-04-23T07:27:36.427Z,20.50
2018-04-23T07:28:38.875Z,20.40
2018-04-23T07:29:41.382Z,20.30
2018-04-23T07:30:43.860Z,20.20
2018-04-23T07:31:46.374Z,20.10
2018-04-23T07:32:49.725Z,20.00
2018-04-23T07:33:53.115Z,20.00
2018-04-23T07:34:55.581Z,20.00
2018-04-23T07:35:58.887Z,20.00
2018-04-23T07:37:01.475Z,20.00
2018-04-23T07:38:03.997Z,20.10
2018-04-23T07:39:06.474Z,20.30
2018-04-23T07:40:09.044Z,20.40
2018-04-23T07:41:11.554Z,20.60
2018-04-23T07:42:14.820Z,21.10
2018-04-23T07:43:17.328Z,21.10
2018-04-23T07:44:20.570Z,22.00
2018-04-23T07:45:23.803Z,22.30
2018-04-23T07:46:27.050Z,22.80
2018-04-23T07:47:30.431Z,23.10
2018-04-23T07:48:32.900Z,23.10
2018-04-23T07:49:35.375Z,23.50
2018-04-23T07:50:37.861Z,23.70
2018-04-23T07:51:41.134Z,24.10
2018-04-23T07:52:43.632Z,24.10
2018-04-23T07:53:46.100Z,24.50
2018-04-23T07:54:48.629Z,24.60
2018-04-23T07:55:51.113Z,25.00
2018-04-23T07:56:54.359Z,25.80
2018-04-23T07:57:57.657Z,26.00
2018-04-23T07:59:00.140Z,26.00
2018-04-23T08:00:02.685Z,26.20
2018-04-23T08:01:05.103Z,26.40
2018-04-23T08:02:07.596Z,26.60
2018-04-23T08:03:10.848Z,26.40
2018-04-23T08:04:14.131Z,26.30
2018-04-23T08:05:16.589Z,26.30
2018-04-23T08:06:19.100Z,26.50
2018-04-23T08:07:21.711Z,26.60
2018-04-23T08:08:24.350Z,26.60
2018-04-23T08:09:27.597Z,26.40
2018-04-23T08:10:30.115Z,26.30
2018-04-23T08:11:32.577Z,26.30
2018-04-23T08:12:35.848Z,26.00
2018-04-23T08:13:38.326Z,26.00
2018-04-23T08:14:40.810Z,25.70
2018-04-23T08:15:43.271Z,25.40
2018-04-23T08:16:46.526Z,25.30
2018-04-23T08:17:49.030Z,25.30
2018-04-23T08:18:51.493Z,25.40
2018-04-23T08:19:54.745Z,25.50
2018-04-23T08:20:58.127Z,25.40
2018-04-23T08:22:00.628Z,25.40
2018-04-23T08:23:03.185Z,25.20
2018-04-23T08:24:05.680Z,25.10
2018-04-23T08:25:08.190Z,25.10
2018-04-23T08:26:11.450Z,25.00
2018-04-23T08:27:14.004Z,25.00
2018-04-23T08:28:16.480Z,24.70
2018-04-23T08:29:19.743Z,24.50
2018-04-23T08:30:22.261Z,24.40
2018-04-23T08:31:24.715Z,24.60
2018-04-23T08:32:27.236Z,24.80
2018-04-23T08:33:29.748Z,24.80
2018-04-23T08:34:32.237Z,25.00
2018-04-23T08:35:35.766Z,25.00
2018-04-23T08:36:38.679Z,25.00
2018-04-23T08:37:41.839Z,25.00
2018-04-23T08:38:44.328Z,24.90
2018-04-23T08:39:46.827Z,24.60
2018-04-23T08:40:50.068Z,24.20
2018-04-23T08:41:53.340Z,24.10
2018-04-23T08:42:55.819Z,24.10
2018-04-23T08:43:58.522Z,24.10
2018-04-23T08:45:00.949Z,24.00
2018-04-23T08:46:03.412Z,24.00
2018-04-23T08:47:06.645Z,23.90
2018-04-23T08:48:09.900Z,23.80
2018-04-23T08:49:12.362Z,23.70
2018-04-23T08:50:14.881Z,23.70
2018-04-23T08:51:17.381Z,23.60
2018-04-23T08:52:19.874Z,23.40
2018-04-23T08:53:22.368Z,23.20
2018-04-23T08:54:24.874Z,23.20
2018-04-23T08:55:27.382Z,23.20
2018-04-23T08:56:29.860Z,23.10
2018-04-23T08:57:32.346Z,23.00
2018-04-23T08:58:34.846Z,23.00
2018-04-23T08:59:38.093Z,22.80
2018-04-23T09:00:41.360Z,22.70
2018-04-23T09:01:43.884Z,22.70
2018-04-23T09:02:46.371Z,22.60
2018-04-23T09:03:50.376Z,22.60
2018-04-23T09:04:52.856Z,22.60
2018-04-23T09:05:55.418Z,22.60
2018-04-23T09:08:06.936Z,22.60
2018-04-23T09:09:09.429Z,22.50
2018-04-23T09:10:11.872Z,22.40
2018-04-23T09:11:14.344Z,22.40
2018-04-23T09:12:16.795Z,22.40
2018-04-23T09:13:20.063Z,22.30
2018-04-23T09:14:22.559Z,22.20
2018-04-23T09:15:25.026Z,22.30
2018-04-23T09:16:27.514Z,22.30
2018-04-23T09:17:30.018Z,22.20
2018-04-23T09:18:32.596Z,22.30
2018-04-23T09:19:35.069Z,22.30
2018-04-23T09:20:37.576Z,22.20
2018-04-23T09:21:40.062Z,22.10
2018-04-23T09:22:42.560Z,22.00
2018-04-23T09:23:45.821Z,21.90
2018-04-23T09:24:49.172Z,21.90
2018-04-23T09:25:51.597Z,21.90
2018-04-23T09:26:54.108Z,21.80
2018-04-23T09:27:57.357Z,21.70
2018-04-23T09:28:59.852Z,21.70
2018-04-23T09:30:02.318Z,21.60
2018-04-23T09:31:04.943Z,21.70
2018-04-23T09:32:07.410Z,21.60
2018-04-23T09:33:09.916Z,21.70
2018-04-23T09:34:12.391Z,21.70
2018-04-23T09:35:15.665Z,21.50
2018-04-23T09:36:18.138Z,21.50
2018-04-23T09:37:21.331Z,21.60
2018-04-23T09:38:23.823Z,21.60
2018-04-23T09:39:27.062Z,21.60
2018-04-23T09:40:29.624Z,21.50
2018-04-23T09:41:32.548Z,21.50
2018-04-23T09:42:35.017Z,21.40
2018-04-23T09:43:37.797Z,21.40
2018-04-23T09:44:41.160Z,21.30
2018-04-23T09:45:43.652Z,21.30
2018-04-23T09:46:46.922Z,21.20
2018-04-23T09:47:49.377Z,21.20
2018-04-23T09:48:51.901Z,21.10
2018-04-23T09:49:54.378Z,21.00
2018-04-23T09:50:57.612Z,20.70
2018-04-23T09:52:00.163Z,20.70
2018-04-23T09:53:03.388Z,20.60
2018-04-23T09:54:06.637Z,20.40
2018-04-23T09:55:09.883Z,20.20
2018-04-23T09:56:12.376Z,20.20
2018-04-23T09:57:14.840Z,20.10
2018-04-23T09:58:17.316Z,20.00
2018-04-23T09:59:19.992Z,20.00
2018-04-23T10:00:28.157Z,19.90
2018-04-23T10:01:30.647Z,19.90
2018-04-23T10:02:33.103Z,19.90
2018-04-23T10:03:41.467Z,19.90
2018-04-23T10:04:44.032Z,19.90
2018-04-23T10:05:48.157Z,19.90
2018-04-23T10:06:50.679Z,19.90
2018-04-23T10:07:53.200Z,19.90
2018-04-23T10:08:55.778Z,19.80
2018-04-23T10:09:58.298Z,19.80
2018-04-23T10:11:00.766Z,19.80
2018-04-23T10:12:04.629Z,19.60
2018-04-23T10:13:07.123Z,19.60
2018-04-23T10:14:09.615Z,19.60
2018-04-23T10:15:12.057Z,19.60
2018-04-23T10:16:14.631Z,19.50
2018-04-23T10:17:17.109Z,19.40
2018-04-23T10:18:19.588Z,19.40
2018-04-23T10:19:22.119Z,19.30
2018-04-23T10:20:24.671Z,19.20
2018-04-23T10:21:27.148Z,19.20
2018-04-23T10:22:30.390Z,19.10
2018-04-23T10:23:33.636Z,19.00
2018-04-23T10:24:36.890Z,18.80
2018-04-23T10:25:39.377Z,18.80
2018-04-23T10:26:41.921Z,18.70
2018-04-23T10:27:45.156Z,18.60
2018-04-23T10:28:48.439Z,18.50
2018-04-23T10:29:50.941Z,18.50
2018-04-23T10:30:53.454Z,18.50
2018-04-23T10:31:56.715Z,18.50
2018-04-23T10:32:59.216Z,18.50
2018-04-23T10:34:02.489Z,18.60
2018-04-23T10:35:06.677Z,18.60
2018-04-23T10:36:09.179Z,18.60
2018-04-23T10:37:12.313Z,18.70
2018-04-23T10:38:15.555Z,18.70
2018-04-23T10:39:18.059Z,18.70
2018-04-23T10:40:21.293Z,18.70
2018-04-23T10:41:24.544Z,18.80
2018-04-23T10:42:27.036Z,18.80
2018-04-23T10:43:29.514Z,18.80
2018-04-23T10:44:32.865Z,18.90
2018-04-23T10:45:35.344Z,18.90
2018-04-23T10:46:37.803Z,19.00
2018-04-23T10:47:41.054Z,19.00
2018-04-23T10:48:43.508Z,19.00
2018-04-23T10:49:46.003Z,18.90
2018-04-23T10:50:48.537Z,18.90
2018-04-23T10:51:51.037Z,19.00
2018-04-23T10:52:54.284Z,19.10
2018-04-23T10:53:57.523Z,19.10
2018-04-23T10:55:01.349Z,19.20
2018-04-23T10:56:04.244Z,19.20
2018-04-23T10:57:06.776Z,19.20
2018-04-23T10:58:09.296Z,19.30
2018-04-23T10:59:11.769Z,19.30
2018-04-23T11:00:14.265Z,19.30
2018-04-23T11:01:16.720Z,19.50
2018-04-23T11:02:19.219Z,19.50
2018-04-23T11:03:21.722Z,19.60
2018-04-23T11:04:24.197Z,19.60
2018-04-23T11:05:26.762Z,19.60
2018-04-23T11:06:29.233Z,19.70
2018-04-23T11:07:31.684Z,19.80
2018-04-23T11:08:34.948Z,19.90
2018-04-23T11:09:37.429Z,19.80
2018-04-23T11:10:39.900Z,19.80
2018-04-23T11:11:42.424Z,19.80
2018-04-23T11:12:44.985Z,19.90
2018-04-23T11:13:47.464Z,19.90
2018-04-23T11:14:50.731Z,19.90
2018-04-23T11:15:53.787Z,19.80
2018-04-23T11:16:56.240Z,19.90
2018-04-23T11:17:58.795Z,19.90
2018-04-23T11:19:02.065Z,19.90
2018-04-23T11:20:04.600Z,19.90
2018-04-23T11:21:07.095Z,20.00
2018-04-23T11:22:10.492Z,20.30
2018-04-23T11:23:13.119Z,20.20
2018-04-23T11:24:15.606Z,20.50
2018-04-23T11:25:18.088Z,20.60
2018-04-23T11:26:20.565Z,20.70
2018-04-23T11:27:23.032Z,20.70
2018-04-23T11:28:26.367Z,20.70
2018-04-23T11:29:28.903Z,20.70
2018-04-23T11:30:31.369Z,20.70
2018-04-23T11:31:33.900Z,20.70
2018-04-23T11:32:36.382Z,20.70
2018-04-23T11:33:38.832Z,20.70
2018-04-23T11:34:42.101Z,20.70
2018-04-23T11:35:44.615Z,20.70
2018-04-23T11:36:47.108Z,20.70
2018-04-23T11:37:49.560Z,20.70
2018-04-23T11:38:52.062Z,20.70
2018-04-23T11:39:54.539Z,20.80
2018-04-23T11:40:57.116Z,20.80
2018-04-23T11:41:59.578Z,20.80
2018-04-23T11:43:02.053Z,20.80
2018-04-23T11:44:04.507Z,20.80
2018-04-23T11:45:07.781Z,20.90
2018-04-23T11:46:10.288Z,20.90
2018-04-23T11:47:12.789Z,20.90
2018-04-23T11:48:16.038Z,20.90
2018-04-23T11:49:19.305Z,20.90
2018-04-23T11:50:21.914Z,20.90
2018-04-23T11:51:25.158Z,21.10
2018-04-23T11:52:27.649Z,21.10
2018-04-23T11:53:30.124Z,21.10
2018-04-23T11:54:32.610Z,21.10
2018-04-23T11:55:35.165Z,21.10
2018-04-23T11:56:37.749Z,21.00
2018-04-23T11:57:40.216Z,21.00
2018-04-23T11:58:42.687Z,21.00
2018-04-23T11:59:45.272Z,21.00
2018-04-23T12:00:48.523Z,21.10
2018-04-23T12:01:51.027Z,21.00
2018-04-23T12:02:54.261Z,21.20
2018-04-23T12:03:57.541Z,21.20
2018-04-23T12:05:00.602Z,21.20
2018-04-23T12:06:03.063Z,21.30
2018-04-23T12:07:06.347Z,21.30
2018-04-23T12:08:09.634Z,21.40
2018-04-23T12:09:12.244Z,21.30
2018-04-23T12:10:14.872Z,21.40
2018-04-23T12:11:17.357Z,21.40
2018-04-23T12:12:19.864Z,21.40
2018-04-23T12:13:23.120Z,21.50
2018-04-23T12:14:25.681Z,21.50
2018-04-23T12:15:28.153Z,21.50
2018-04-23T12:16:31.394Z,21.60
2018-04-23T12:17:34.701Z,21.70
2018-04-23T12:18:37.229Z,21.70
2018-04-23T12:19:39.702Z,21.70
2018-04-23T12:20:42.263Z,21.80
2018-04-23T12:21:44.773Z,21.90
2018-04-23T12:22:48.008Z,22.00
2018-04-23T12:23:51.556Z,21.90
2018-04-23T12:24:54.059Z,21.90
2018-04-23T12:25:56.536Z,21.90
2018-04-23T12:26:59.018Z,21.80
2018-04-23T12:28:01.616Z,21.70
2018-04-23T12:29:04.107Z,21.70
2018-04-23T12:30:06.738Z,21.60
2018-04-23T12:31:09.344Z,21.60
2018-04-23T12:32:11.855Z,21.60
2018-04-23T12:33:15.099Z,21.40
2018-04-23T12:34:17.584Z,21.40
2018-04-23T12:35:20.165Z,21.30
2018-04-23T12:36:22.938Z,21.30
2018-04-23T12:37:25.450Z,21.30
2018-04-23T12:38:28.836Z,21.30
2018-04-23T12:39:31.364Z,21.20
2018-04-23T12:40:34.092Z,21.30
2018-04-23T12:41:37.384Z,21.30
2018-04-23T12:42:39.877Z,21.30
2018-04-23T12:43:42.370Z,21.30
2018-04-23T12:44:45.628Z,21.40
2018-04-23T12:45:48.102Z,21.40
2018-04-23T12:46:50.583Z,21.60
2018-04-23T12:47:53.819Z,21.80
2018-04-23T12:48:57.820Z,22.00
2018-04-23T12:50:00.306Z,21.90
2018-04-23T12:51:03.727Z,22.10
2018-04-23T12:52:06.215Z,22.10
2018-04-23T12:53:08.697Z,22.10
2018-04-23T12:54:11.983Z,22.00
2018-04-23T12:55:14.461Z,22.00
2018-04-23T12:56:16.975Z,22.00
2018-04-23T12:57:19.452Z,22.00
2018-04-23T12:58:21.957Z,22.00
2018-04-23T12:59:25.454Z,21.90
2018-04-23T13:00:27.920Z,21.90
2018-04-23T13:01:31.295Z,21.90
2018-04-23T13:02:33.818Z,21.90
2018-04-23T13:03:36.332Z,21.90
2018-04-23T13:04:38.809Z,22.00
2018-04-23T13:05:41.328Z,22.10
2018-04-23T13:06:44.452Z,22.10
2018-04-23T13:07:46.945Z,22.20
2018-04-23T13:08:50.211Z,22.10
2018-04-23T13:09:52.727Z,22.10
2018-04-23T13:10:55.240Z,22.00
2018-04-23T13:11:57.709Z,21.90
2018-04-23T13:13:00.217Z,21.90
2018-04-23T13:14:02.731Z,21.70
2018-04-23T13:15:05.263Z,21.60
2018-04-23T13:16:08.276Z,21.60
2018-04-23T13:17:11.523Z,21.70
2018-04-23T13:18:14.003Z,21.70
2018-04-23T13:19:16.481Z,21.80
2018-04-23T13:20:18.947Z,21.90
2018-04-23T13:21:21.441Z,22.00
2018-04-23T13:22:23.968Z,22.10
2018-04-23T13:23:26.498Z,22.20
2018-04-23T13:24:29.052Z,22.20
2018-04-23T13:25:31.577Z,22.30
2018-04-23T13:26:34.186Z,22.30
2018-04-23T13:27:36.788Z,22.20
2018-04-23T13:28:39.300Z,22.20
2018-04-23T13:29:42.556Z,22.20
2018-04-23T13:30:45.061Z,22.20
2018-04-23T13:31:48.353Z,22.10